createdAt,value
2022-08-05T04:09:59.405Z,8.6
2022-08-05T04:12:23.487Z,11.2
2022-08-05T04:14:33.146Z,12.7
2022-08-05T04:16:47.694Z,9.9
2022-08-05T04:19:02.591Z,11.2
2022-08-05T04:22:05.647Z,6.9
2022-08-05T04:24:04.931Z,7.3
2022-08-05T04:25:57.019Z,8.5
2022-08-05T04:28:12.858Z,5.4
2022-08-05T04:30:27.510Z,8.7
2022-08-05T04:32:42.948Z,8.6
2022-08-05T04:34:58.292Z,8
2022-08-05T04:37:13.693Z,9.4
2022-08-05T04:39:29.077Z,11.6
2022-08-05T04:41:44.413Z,12.1
2022-08-05T04:44:00.748Z,10
2022-08-05T04:46:27.713Z,11.4
2022-08-05T04:48:34.474Z,10.7
2022-08-05T04:51:01.467Z,12
2022-08-05T04:53:07.106Z,14.4
2022-08-05T04:55:39.838Z,12.2
2022-08-05T04:57:40.834Z,14.1
2022-08-05T04:59:57.169Z,13
2022-08-05T05:02:37.902Z,13.8
2022-08-05T05:04:29.892Z,16
2022-08-05T05:06:49.423Z,15.4
2022-08-05T05:09:02.668Z,17.9
2022-08-05T05:11:18.015Z,18.9
2022-08-05T05:13:43.123Z,18.1
2022-08-05T05:15:54.559Z,17.200001
2022-08-05T05:18:08.102Z,18.1
2022-08-05T05:20:23.806Z,17.1
2022-08-05T05:22:41.127Z,17.700001
2022-08-05T05:25:00.041Z,15.6
2022-08-05T05:27:15.536Z,18.5
2022-08-05T05:29:40.798Z,19.9
2022-08-05T05:31:49.293Z,20.6
2022-08-05T05:34:04.531Z,22.299999
2022-08-05T05:36:19.894Z,19.5
2022-08-05T05:38:35.247Z,20.1
2022-08-05T05:40:51.512Z,20.200001
2022-08-05T05:43:08.524Z,21.9
2022-08-05T05:45:22.329Z,22.700001
2022-08-05T05:48:05.816Z,23.200001
2022-08-05T05:49:56.675Z,20.5
2022-08-05T05:52:13.377Z,19.799999
2022-08-05T05:54:35.477Z,22.5
2022-08-05T05:56:47.953Z,23.4
2022-08-05T05:59:05.550Z,24.1
2022-08-05T06:01:23.422Z,25.4
2022-08-05T06:03:40.959Z,24.799999
2022-08-05T06:05:55.709Z,25.700001
2022-08-05T06:08:10.658Z,23.799999
2022-08-05T06:10:29.224Z,26.799999
2022-08-05T06:12:43.270Z,26.299999
2022-08-05T06:14:59.621Z,25.700001
2022-08-05T06:17:31.964Z,26.799999
2022-08-05T06:19:34.376Z,26.299999
2022-08-05T06:21:51.727Z,26.6
2022-08-05T06:24:04.923Z,25.200001
2022-08-05T06:26:23.953Z,27.1
2022-08-05T06:28:37.518Z,28.200001
2022-08-05T06:30:52.879Z,27.299999
2022-08-05T06:33:09.816Z,42.5
2022-08-05T06:36:03.277Z,29.799999
2022-08-05T06:37:57.195Z,31.700001
2022-08-05T06:40:00.268Z,29.4
2022-08-05T06:42:15.671Z,27.5
2022-08-05T06:44:30.972Z,26.6
2022-08-05T06:46:45.310Z,28.9
2022-08-05T06:49:02.169Z,25
2022-08-05T06:51:21.843Z,22.9
2022-08-05T06:53:39.198Z,23.200001
2022-08-05T06:55:52.697Z,21.200001
2022-08-05T06:58:20.504Z,21
2022-08-05T07:00:26.334Z,20.1
2022-08-05T07:02:42.706Z,18
2022-08-05T07:04:59.042Z,15.3
2022-08-05T07:07:15.076Z,12
2022-08-05T07:09:32.291Z,9.7
2022-08-05T07:11:51.648Z,7.9
2022-08-05T07:14:04.525Z,8.3
2022-08-05T07:16:25.651Z,8.1
2022-08-05T07:18:37.254Z,8.4
2022-08-05T07:20:53.635Z,7.4
2022-08-05T07:23:08.022Z,7.4
2022-08-05T07:25:54.514Z,7
2022-08-05T07:27:58.918Z,7.1
2022-08-05T07:30:21.738Z,6.9
2022-08-05T07:32:16.348Z,8.1
2022-08-05T07:34:32.711Z,7.2
2022-08-05T07:36:48.068Z,7
2022-08-05T07:39:05.715Z,6.7
2022-08-05T07:42:09.990Z,8.4
2022-08-05T07:43:38.238Z,7.6
2022-08-05T07:45:57.894Z,7.3
2022-08-05T07:48:10.051Z,7.1
2022-08-05T07:50:29.028Z,5.9
2022-08-05T07:52:44.299Z,7.9
2022-08-05T07:54:59.268Z,5.9
2022-08-05T07:57:22.520Z,5.6
2022-08-05T07:59:38.787Z,5.1
2022-08-05T08:01:51.910Z,5.9
2022-08-05T08:04:04.818Z,4.3
2022-08-05T08:06:22.215Z,4
2022-08-05T08:08:38.653Z,4
2022-08-05T08:10:54.061Z,4.2
2022-08-05T08:13:11.545Z,4.1
2022-08-05T08:15:28.133Z,4.5
2022-08-05T08:17:46.351Z,4.1
2022-08-05T08:20:10.571Z,4.2
2022-08-05T08:22:17.602Z,4.3
2022-08-05T08:24:51.211Z,4.2
2022-08-05T08:26:49.280Z,4.6
2022-08-05T08:29:22.126Z,6.3
2022-08-05T08:31:23.103Z,4.1
2022-08-05T08:33:39.628Z,5.3
2022-08-05T08:36:18.714Z,6
2022-08-05T08:38:16.517Z,4.5
2022-08-05T08:40:28.738Z,5.2
2022-08-05T08:42:46.998Z,4.4
2022-08-05T08:45:21.570Z,6.5
2022-08-05T08:47:22.154Z,6.7
2022-08-05T08:50:07.928Z,4.6
2022-08-05T08:52:02.585Z,8.4
2022-08-05T08:54:13.738Z,4.9
2022-08-05T08:56:28.247Z,5.2
2022-08-05T08:58:47.564Z,3.4
2022-08-05T09:01:00.276Z,4.4
2022-08-05T09:03:19.132Z,5.7
2022-08-05T09:05:38.084Z,4.3
2022-08-05T09:07:56.619Z,2.8
2022-08-05T09:10:07.681Z,5.2
2022-08-05T09:12:27.029Z,3.2
2022-08-05T09:14:54.943Z,5.4
2022-08-05T09:16:57.939Z,2.9
2022-08-05T09:19:14.592Z,3.8
2022-08-05T09:22:18.013Z,4.7
2022-08-05T09:23:46.120Z,5.4
2022-08-05T09:26:05.995Z,4.2
2022-08-05T09:28:21.765Z,4.2
2022-08-05T09:30:37.177Z,4.4
2022-08-05T09:32:53.943Z,4
2022-08-05T09:35:08.901Z,4.2
2022-08-05T09:38:13.150Z,5.8
2022-08-05T09:39:45.959Z,5.7
2022-08-05T09:41:58.954Z,5
2022-08-05T09:44:13.339Z,6
2022-08-05T09:46:28.717Z,6.5
2022-08-05T09:48:55.184Z,6.2
2022-08-05T09:51:00.561Z,8.9
2022-08-05T09:53:22.737Z,6.3
2022-08-05T09:55:56.023Z,6.9
2022-08-05T09:57:49.594Z,8.3
2022-08-05T10:00:07.852Z,5
2022-08-05T10:02:24.516Z,5.6
2022-08-05T10:04:39.861Z,6.8
2022-08-05T10:06:58.755Z,7.5
2022-08-05T10:09:25.211Z,6.7
2022-08-05T10:11:31.213Z,8.5
2022-08-05T10:13:49.135Z,7.6
2022-08-05T10:16:04.153Z,5.1
2022-08-05T10:18:20.518Z,5.6
2022-08-05T10:20:35.907Z,7.6
2022-08-05T10:22:51.306Z,8.1
2022-08-05T10:25:06.613Z,8
2022-08-05T10:27:26.187Z,6.9
2022-08-05T10:30:06.133Z,5.4
2022-08-05T10:32:50.394Z,9
2022-08-05T10:34:14.063Z,7.8
2022-08-05T10:36:29.441Z,8.2
2022-08-05T10:38:44.935Z,7.1
2022-08-05T10:40:59.329Z,6.5
2022-08-05T10:43:13.618Z,8.1
2022-08-05T10:45:30.598Z,10.7
2022-08-05T10:47:47.077Z,10.5
2022-08-05T10:50:20.938Z,6.5
2022-08-05T10:52:21.143Z,6.8
2022-08-05T10:54:37.979Z,8.5
2022-08-05T10:56:53.817Z,9.7
2022-08-05T10:59:12.382Z,10.2
2022-08-05T11:01:28.171Z,8.5
2022-08-05T11:03:43.899Z,9.2
2022-08-05T11:05:59.243Z,9.3
2022-08-05T11:08:27.595Z,10
2022-08-05T11:10:32.967Z,9.6
2022-08-05T11:12:50.599Z,8.3
2022-08-05T11:15:11.998Z,8.1
2022-08-05T11:17:56.944Z,10
2022-08-05T11:20:09.649Z,8.1
2022-08-05T11:21:58.742Z,9.2
2022-08-05T11:24:14.543Z,8.9
2022-08-05T11:26:32.317Z,8
2022-08-05T11:28:46.760Z,10.2
2022-08-05T11:31:01.107Z,9.4
2022-08-05T11:33:20.887Z,7.1
2022-08-05T11:35:33.840Z,7.5
2022-08-05T11:38:27.449Z,6.6
2022-08-05T11:40:06.651Z,7.2
2022-08-05T11:42:21.105Z,7.9
2022-08-05T11:44:41.049Z,9.3
2022-08-05T11:46:58.880Z,9.9
2022-08-05T11:49:11.180Z,8.9
2022-08-05T11:51:43.501Z,7.8
2022-08-05T11:53:42.871Z,9.4
2022-08-05T11:55:59.013Z,6.1
2022-08-05T11:58:13.490Z,10.5
2022-08-05T12:00:30.992Z,8.9
2022-08-05T12:02:46.384Z,6.2
2022-08-05T12:05:00.838Z,5.9
2022-08-05T12:07:16.150Z,7.1
2022-08-05T12:09:37.907Z,5.9
2022-08-05T12:11:48.761Z,11.6
2022-08-05T12:14:05.097Z,4.9
2022-08-05T12:16:19.831Z,13.3
2022-08-05T12:18:38.638Z,5.9
2022-08-05T12:20:53.750Z,5.6
2022-08-05T12:23:09.082Z,8.7
2022-08-05T12:25:28.201Z,7.9
2022-08-05T12:27:52.811Z,5.6
2022-08-05T12:29:58.161Z,6.4
2022-08-05T12:32:13.530Z,6.4
2022-08-05T12:34:27.862Z,5.6
2022-08-05T12:36:43.297Z,8.9
2022-08-05T12:38:57.569Z,7.2
2022-08-05T12:41:13.881Z,8.3
2022-08-05T12:43:31.949Z,5.2
2022-08-05T12:45:49.617Z,6.8
2022-08-05T12:48:17.122Z,6.5
2022-08-05T12:50:20.449Z,9.5
2022-08-05T12:52:39.821Z,6.3
2022-08-05T12:54:54.245Z,7.3
2022-08-05T12:57:10.116Z,7.1
2022-08-05T12:59:27.702Z,9
2022-08-05T13:01:58.862Z,6.4
2022-08-05T13:04:00.573Z,6.4
2022-08-05T13:06:17.120Z,6.7
2022-08-05T13:08:33.317Z,5.4
2022-08-05T13:10:50.412Z,5.7
2022-08-05T13:13:03.992Z,6.2
2022-08-05T13:15:24.278Z,8.7
2022-08-05T13:17:41.279Z,4.6
2022-08-05T13:19:54.074Z,6.6
2022-08-05T13:22:09.431Z,7.6
2022-08-05T13:24:27.844Z,4.5
2022-08-05T13:26:42.213Z,6.7
2022-08-05T13:28:59.562Z,5.6
2022-08-05T13:31:14.873Z,6.2
2022-08-05T13:34:20.410Z,4.4
2022-08-05T13:35:51.442Z,5.2
2022-08-05T13:38:05.980Z,6.7
2022-08-05T13:40:27.583Z,6.2
2022-08-05T13:42:37.607Z,5.2
2022-08-05T13:44:54.820Z,7.5
2022-08-05T13:47:10.279Z,4.4
2022-08-05T13:49:26.598Z,3.4
2022-08-05T13:51:45.970Z,4.9
2022-08-05T13:54:01.289Z,2.9
2022-08-05T13:56:19.161Z,3.2
2022-08-05T13:58:33.023Z,4
2022-08-05T14:00:48.427Z,7
2022-08-05T14:03:04.998Z,4.9
2022-08-05T14:05:29.584Z,5.2
2022-08-05T14:07:56.618Z,6.6
2022-08-05T14:09:55.799Z,4
2022-08-05T14:12:17.952Z,5.7
2022-08-05T14:14:32.374Z,5.4
2022-08-05T14:16:45.938Z,3.8
2022-08-05T14:19:04.351Z,4.9
2022-08-05T14:22:07.582Z,6.1
2022-08-05T14:23:37.251Z,7.9
2022-08-05T14:25:54.072Z,5.1
2022-08-05T14:28:08.815Z,5.5
2022-08-05T14:30:26.485Z,4.4
2022-08-05T14:32:42.562Z,7.2
2022-08-05T14:34:57.927Z,3.7
2022-08-05T14:37:14.082Z,5.2
2022-08-05T14:39:27.758Z,3.5
2022-08-05T14:42:02.563Z,3.9
2022-08-05T14:44:09.902Z,4.3
2022-08-05T14:46:19.883Z,4.3
2022-08-05T14:48:34.244Z,5.8
2022-08-05T14:50:50.621Z,5.8
2022-08-05T14:53:06.967Z,4.1
2022-08-05T14:55:22.333Z,6.8
2022-08-05T14:57:54.900Z,3.1
2022-08-05T14:59:54.034Z,4
2022-08-05T15:02:15.193Z,3.9
2022-08-05T15:04:28.961Z,2.9
2022-08-05T15:06:49.172Z,3.8
2022-08-05T15:09:03.422Z,4.3
2022-08-05T15:11:16.909Z,2.3
2022-08-05T15:13:45.009Z,4.8
2022-08-05T15:15:54.857Z,6.6
2022-08-05T15:18:07.056Z,5.6
2022-08-05T15:20:24.758Z,3.2
2022-08-05T15:22:38.828Z,4
2022-08-05T15:24:53.212Z,4.2
2022-08-05T15:27:08.982Z,5.1
2022-08-05T15:29:22.977Z,4.1
2022-08-05T15:31:38.346Z,4.2
2022-08-05T15:34:04.216Z,4.7
2022-08-05T15:36:17.077Z,5.2
2022-08-05T15:38:33.529Z,3.2
2022-08-05T15:41:04.991Z,2
2022-08-05T15:43:09.420Z,4
2022-08-05T15:45:37.109Z,3.9
2022-08-05T15:47:36.718Z,2.3
2022-08-05T15:49:58.839Z,5.4
2022-08-05T15:52:14.076Z,3.6
2022-08-05T15:54:34.671Z,3.5
2022-08-05T15:56:44.170Z,3.6
2022-08-05T15:58:58.509Z,3.1
2022-08-05T16:01:15.955Z,3
2022-08-05T16:03:32.582Z,3.4
2022-08-05T16:05:52.217Z,8.6
2022-08-05T16:08:04.070Z,4.9
2022-08-05T16:10:23.248Z,2.6
2022-08-05T16:12:35.973Z,1.8
2022-08-05T16:14:51.377Z,3.1
2022-08-05T16:17:06.706Z,3.1
2022-08-05T16:19:25.776Z,3.8
2022-08-05T16:21:59.076Z,2.5
2022-08-05T16:24:01.578Z,2.7
2022-08-05T16:26:14.128Z,4.7
2022-08-05T16:28:29.434Z,2.9
2022-08-05T16:30:44.807Z,5
2022-08-05T16:33:00.159Z,4.1
2022-08-05T16:35:15.943Z,3.7
2022-08-05T16:38:03.975Z,4.6
2022-08-05T16:40:05.405Z,5
2022-08-05T16:42:13.127Z,2.9
2022-08-05T16:44:25.201Z,3
2022-08-05T16:46:41.015Z,3.7
2022-08-05T16:48:56.629Z,1.4
2022-08-05T16:51:11.982Z,2.2
2022-08-05T16:53:31.960Z,3.2
2022-08-05T16:55:46.671Z,2.5
2022-08-05T16:58:01.524Z,2.6
2022-08-05T17:00:25.869Z,1.9
2022-08-05T17:02:34.891Z,5.5
2022-08-05T17:04:50.326Z,2.3
2022-08-05T17:07:11.103Z,4.5
2022-08-05T17:09:23.411Z,3.8
2022-08-05T17:11:46.046Z,4.1
2022-08-05T17:14:00.742Z,1.3
2022-08-05T17:16:33.183Z,2.8
2022-08-05T17:18:30.787Z,1.3
2022-08-05T17:20:47.147Z,2
2022-08-05T17:23:03.617Z,1.8
2022-08-05T17:25:22.345Z,3.3
2022-08-05T17:27:36.450Z,1.2
2022-08-05T17:29:53.058Z,3.7
2022-08-05T17:32:11.569Z,2.9
2022-08-05T17:34:29.671Z,2.5
2022-08-05T17:36:44.005Z,2.2
2022-08-05T17:38:59.656Z,2.3
2022-08-05T17:41:23.059Z,1.3
2022-08-05T17:43:47.362Z,1.9
2022-08-05T17:45:52.143Z,2.9
2022-08-05T17:48:07.506Z,2.9
2022-08-05T17:50:27.948Z,3.2
2022-08-05T17:52:52.911Z,1.6
2022-08-05T17:54:57.230Z,54.599998
2022-08-05T17:57:12.633Z,25.299999
2022-08-05T17:59:28.164Z,26.9
2022-08-05T18:01:48.518Z,18.1
2022-08-05T18:04:04.263Z,10.1
2022-08-05T18:06:17.422Z,2.9
2022-08-05T18:08:33.782Z,7.2
2022-08-05T18:10:48.115Z,6.1
2022-08-05T18:13:07.760Z,5.1
2022-08-05T18:15:19.074Z,4.1
2022-08-05T18:17:58.235Z,6.6
2022-08-05T18:19:51.863Z,4
2022-08-05T18:22:11.457Z,2.3
2022-08-05T18:24:26.192Z,1.9
2022-08-05T18:26:44.041Z,3.7
2022-08-05T18:28:59.337Z,2.4
2022-08-05T18:31:15.821Z,3
2022-08-05T18:33:37.702Z,4.3
2022-08-05T18:35:49.980Z,2.3
2022-08-05T18:38:05.806Z,1.8
2022-08-05T18:40:31.977Z,2.5
2022-08-05T18:42:38.844Z,2.1
2022-08-05T18:44:56.576Z,4.6
2022-08-05T18:47:12.129Z,3.1
2022-08-05T18:49:30.291Z,2.5
2022-08-05T18:52:03.732Z,3.3
2022-08-05T18:54:00.784Z,3.8
2022-08-05T18:56:15.149Z,5.9
2022-08-05T18:58:31.634Z,6.2
2022-08-05T19:00:49.266Z,2.4
2022-08-05T19:03:04.870Z,3.3
2022-08-05T19:06:06.906Z,2.6
2022-08-05T19:07:45.442Z,1.5
2022-08-05T19:09:54.809Z,3.6
2022-08-05T19:12:10.665Z,5.7
2022-08-05T19:14:45.105Z,2.3
2022-08-05T19:16:46.982Z,4
2022-08-05T19:19:00.243Z,4.4
2022-08-05T19:21:14.696Z,2.9
2022-08-05T19:24:06.392Z,3
2022-08-05T19:25:46.548Z,2.7
2022-08-05T19:28:00.961Z,2.5
2022-08-05T19:30:17.475Z,4.7
2022-08-05T19:32:33.881Z,4.1
2022-08-05T19:34:54.262Z,5.3
2022-08-05T19:37:05.614Z,1.9
2022-08-05T19:39:20.953Z,3.9
2022-08-05T19:41:58.634Z,2.3
2022-08-05T19:44:05.200Z,2.5
2022-08-05T19:46:16.590Z,3.6
2022-08-05T19:48:27.791Z,4.5
2022-08-05T19:50:42.273Z,1.5
2022-08-05T19:52:56.676Z,2.2
2022-08-05T19:56:12.235Z,2.8
2022-08-05T19:57:47.523Z,1.3
2022-08-05T19:59:51.345Z,2.2
2022-08-05T20:02:05.098Z,3.9
2022-08-05T20:04:19.617Z,3.3
2022-08-05T20:06:43.123Z,2.8
2022-08-05T20:08:51.330Z,4.6
2022-08-05T20:11:06.674Z,4.3
2022-08-05T20:13:25.869Z,3.7
2022-08-05T20:15:49.064Z,2.6
2022-08-05T20:17:55.924Z,1.2
2022-08-05T20:20:11.305Z,2.8
2022-08-05T20:22:27.959Z,2.3
2022-08-05T20:24:43.071Z,3.4
2022-08-05T20:26:57.479Z,4.1
2022-08-05T20:29:14.390Z,4.9
2022-08-05T20:31:37.692Z,3.7
2022-08-05T20:33:47.693Z,4.9
2022-08-05T20:36:02.083Z,4.4
2022-08-05T20:38:22.905Z,3.3
2022-08-05T20:40:34.041Z,4.7
2022-08-05T20:42:48.487Z,4.4
2022-08-05T20:45:03.912Z,3.9
2022-08-05T20:47:19.701Z,3.2
2022-08-05T20:49:38.012Z,3.7
2022-08-05T20:51:54.335Z,4.5
2022-08-05T20:54:13.876Z,2.9
2022-08-05T20:56:28.140Z,5.2
2022-08-05T20:58:43.542Z,3.5
2022-08-05T21:00:57.954Z,1.6
2022-08-05T21:03:12.394Z,2.9
2022-08-05T21:05:38.223Z,2.5
2022-08-05T21:07:51.046Z,4.3
2022-08-05T21:10:03.683Z,5.9
2022-08-05T21:12:19.140Z,2.9
2022-08-05T21:14:34.999Z,3.5
2022-08-05T21:16:50.904Z,4.3
2022-08-05T21:19:05.361Z,3.8
2022-08-05T21:21:24.436Z,3.1
2022-08-05T21:23:38.945Z,4.8
2022-08-05T21:25:55.351Z,2.6
2022-08-05T21:28:08.938Z,3
